Terminal Aerodrome Forecast
Issued by NWS San Angelo, TX

Home | Current Version | Previous Version | Text Only | Print | Product List | Glossary On
Versions: 1 2 3 4 5 6 7 8 9 10 11 12 13
000
FTUS44 KSJT 282320
TAFSJT
TAF
KSJT 282320Z 2900/2924 18007KT P6SM FEW250
     FM290300 18006KT P6SM SCT150
     FM291500 20008KT P6SM SCT120=

USA.gov is the U.S. government's official web portal to all federal, state and local government web resources and services.